createdAt,value
2018-04-15T00:00:08.172Z,47.72
2018-04-15T00:01:13.948Z,41.58
2018-04-15T00:02:19.728Z,42.58
2018-04-15T00:03:25.319Z,43.38
2018-04-15T00:04:31.859Z,42.33
2018-04-15T00:05:38.415Z,42.97
2018-04-15T00:06:44.195Z,40.97
2018-04-15T00:07:49.975Z,45.53
2018-04-15T00:08:55.771Z,43.03
2018-04-15T00:10:01.567Z,46.25
2018-04-15T00:11:07.547Z,42.40
2018-04-15T00:12:14.079Z,45.05
2018-04-15T00:13:19.842Z,44.47
2018-04-15T00:14:26.420Z,42.85
2018-04-15T00:15:32.207Z,45.00
2018-04-15T00:16:37.977Z,42.22
2018-04-15T00:17:44.516Z,41.63
2018-04-15T00:18:50.286Z,43.72
2018-04-15T00:19:56.851Z,42.95
2018-04-15T00:21:03.392Z,45.40
2018-04-15T00:22:09.163Z,44.17
2018-04-15T00:23:14.936Z,43.70
2018-04-15T00:24:20.767Z,42.47
2018-04-15T00:25:26.560Z,43.35
2018-04-15T00:26:32.331Z,45.30
2018-04-15T00:27:38.192Z,46.10
2018-04-15T00:28:43.994Z,48.72
2018-04-15T00:29:49.982Z,47.78
2018-04-15T00:30:56.524Z,51.58
2018-04-15T00:32:03.062Z,54.78
2018-04-15T00:33:08.856Z,50.97
2018-04-15T00:34:14.635Z,54.83
2018-04-15T00:35:20.428Z,56.63
2018-04-15T00:36:26.216Z,53.65
2018-04-15T00:37:32.008Z,53.87
2018-04-15T00:38:37.997Z,54.10
2018-04-15T00:39:43.758Z,51.30
2018-04-15T00:40:49.529Z,49.97
2018-04-15T00:41:56.086Z,53.10
2018-04-15T00:43:02.607Z,51.20
2018-04-15T00:44:08.385Z,56.28
2018-04-15T00:45:14.936Z,51.25
2018-04-15T00:46:21.475Z,53.60
2018-04-15T00:47:27.281Z,55.90
2018-04-15T00:48:33.050Z,52.22
2018-04-15T00:49:38.866Z,53.40
2018-04-15T00:50:44.623Z,53.08
2018-04-15T00:51:50.387Z,53.67
2018-04-15T00:52:56.942Z,50.12
2018-04-15T00:54:17.707Z,56.88
2018-04-15T00:55:23.487Z,53.95
2018-04-15T00:56:29.261Z,56.78
2018-04-15T00:57:35.040Z,55.95
2018-04-15T00:58:40.841Z,56.63
2018-04-15T00:59:47.388Z,56.20
2018-04-15T01:00:53.927Z,60.12
2018-04-15T01:01:59.722Z,60.97
2018-04-15T01:03:05.156Z,56.67
2018-04-15T01:04:10.959Z,58.50
2018-04-15T01:05:16.758Z,60.45
2018-04-15T01:06:22.513Z,57.90
2018-04-15T01:07:28.417Z,56.13
2018-04-15T01:08:34.954Z,53.13
2018-04-15T01:09:40.751Z,59.13
2018-04-15T01:10:46.519Z,59.88
2018-04-15T01:11:52.310Z,65.37
2018-04-15T01:12:58.070Z,58.63
2018-04-15T01:14:04.072Z,54.00
2018-04-15T01:15:11.931Z,58.25
2018-04-15T01:16:17.483Z,57.62
2018-04-15T01:17:23.254Z,61.33
2018-04-15T01:18:29.924Z,59.53
2018-04-15T01:19:35.352Z,52.55
2018-04-15T01:20:41.163Z,66.20
2018-04-15T01:21:46.929Z,59.83
2018-04-15T01:22:53.495Z,55.75
2018-04-15T01:24:00.046Z,57.03
2018-04-15T01:25:06.594Z,53.83
2018-04-15T01:26:13.173Z,51.15
2018-04-15T01:27:19.699Z,54.95
2018-04-15T01:28:26.294Z,52.13
2018-04-15T01:29:32.827Z,54.22
2018-04-15T01:30:38.611Z,55.05
2018-04-15T01:31:44.407Z,51.25
2018-04-15T01:32:50.170Z,55.65
2018-04-15T01:33:56.719Z,58.00
2018-04-15T01:35:02.489Z,51.03
2018-04-15T01:36:09.017Z,53.70
2018-04-15T01:37:14.795Z,53.08
2018-04-15T01:38:20.591Z,50.90
2018-04-15T01:39:26.359Z,50.28
2018-04-15T01:40:32.899Z,46.92
2018-04-15T01:41:38.666Z,47.70
2018-04-15T01:42:45.218Z,53.55
2018-04-15T01:43:51.744Z,52.08
2018-04-15T01:44:57.528Z,51.63
2018-04-15T01:46:03.827Z,52.70
2018-04-15T01:47:09.605Z,46.05
2018-04-15T01:48:16.916Z,52.47
2018-04-15T01:49:22.694Z,52.53
2018-04-15T01:50:28.455Z,47.25
2018-04-15T01:51:34.249Z,49.03
2018-04-15T01:52:40.018Z,47.35
2018-04-15T01:53:45.807Z,49.25
2018-04-15T01:54:52.343Z,48.38
2018-04-15T01:55:58.128Z,52.55
2018-04-15T01:57:03.931Z,53.85
2018-04-15T01:58:09.702Z,51.88
2018-04-15T01:59:16.248Z,52.97
2018-04-15T02:00:22.779Z,49.35
2018-04-15T02:01:28.586Z,52.13
2018-04-15T02:02:34.428Z,51.35
2018-04-15T02:03:40.220Z,49.67
2018-04-15T02:04:46.011Z,51.30
2018-04-15T02:05:51.774Z,49.95
2018-04-15T02:06:57.587Z,52.70
2018-04-15T02:08:03.559Z,50.10
2018-04-15T02:09:09.349Z,52.65
2018-04-15T02:10:15.147Z,51.20
2018-04-15T02:11:20.941Z,45.60
2018-04-15T02:12:27.511Z,46.08
2018-04-15T02:13:33.831Z,48.58
2018-04-15T02:14:39.611Z,47.85
2018-04-15T02:15:45.403Z,50.30
2018-04-15T02:16:51.176Z,46.85
2018-04-15T02:17:56.992Z,49.22
2018-04-15T02:19:02.283Z,44.42
2018-04-15T02:20:08.051Z,45.67
2018-04-15T02:21:13.845Z,47.72
2018-04-15T02:22:20.426Z,49.45
2018-04-15T02:23:26.411Z,47.60
2018-04-15T02:24:32.198Z,49.25
2018-04-15T02:25:38.740Z,45.97
2018-04-15T02:26:44.536Z,46.28
2018-04-15T02:27:50.308Z,44.22
2018-04-15T02:28:56.360Z,52.22
2018-04-15T02:30:02.153Z,48.28
2018-04-15T02:31:07.929Z,48.90
2018-04-15T02:32:13.718Z,44.05
2018-04-15T02:33:19.496Z,49.50
2018-04-15T02:34:25.283Z,53.70
2018-04-15T02:35:31.059Z,50.72
2018-04-15T02:36:36.495Z,45.92
2018-04-15T02:37:42.294Z,42.25
2018-04-15T02:38:47.602Z,47.42
2018-04-15T02:39:53.376Z,46.42
2018-04-15T02:40:59.155Z,46.67
2018-04-15T02:42:04.742Z,44.88
2018-04-15T02:43:10.530Z,51.08
2018-04-15T02:44:16.304Z,44.78
2018-04-15T02:45:22.089Z,46.83
2018-04-15T02:46:28.653Z,44.03
2018-04-15T02:47:35.192Z,46.05
2018-04-15T02:48:41.031Z,51.58
2018-04-15T02:49:46.805Z,47.13
2018-04-15T02:50:53.343Z,46.15
2018-04-15T02:51:59.131Z,45.53
2018-04-15T02:53:04.897Z,50.90
2018-04-15T02:54:10.694Z,50.10
2018-04-15T02:55:17.215Z,49.78
2018-04-15T02:56:22.975Z,49.58
2018-04-15T02:57:29.544Z,47.50
2018-04-15T02:58:35.304Z,51.75
2018-04-15T02:59:41.096Z,50.25
2018-04-15T03:00:46.866Z,46.42
2018-04-15T03:01:53.443Z,46.08
2018-04-15T03:02:59.211Z,47.35
2018-04-15T03:04:04.759Z,50.22
2018-04-15T03:05:10.601Z,48.22
2018-04-15T03:06:16.368Z,45.97
2018-04-15T03:07:22.138Z,49.38
2018-04-15T03:08:28.683Z,45.63
2018-04-15T03:09:35.212Z,52.65
2018-04-15T03:10:40.781Z,48.90
2018-04-15T03:11:46.556Z,52.03
2018-04-15T03:12:52.340Z,49.97
2018-04-15T03:13:58.313Z,48.05
2018-04-15T03:15:03.838Z,49.97
2018-04-15T03:16:09.635Z,50.55
2018-04-15T03:17:15.419Z,51.42
2018-04-15T03:18:20.882Z,47.62
2018-04-15T03:19:27.482Z,52.47
2018-04-15T03:20:33.455Z,49.80
2018-04-15T03:21:39.354Z,48.80
2018-04-15T03:22:45.132Z,44.75
2018-04-15T03:23:50.901Z,51.33
2018-04-15T03:24:57.449Z,47.58
2018-04-15T03:26:03.215Z,50.10
2018-04-15T03:27:09.765Z,44.20
2018-04-15T03:28:15.599Z,50.05
2018-04-15T03:29:21.363Z,51.63
2018-04-15T03:30:27.952Z,49.20
2018-04-15T03:31:33.707Z,51.53
2018-04-15T03:32:39.535Z,44.58
2018-04-15T03:33:45.307Z,52.67
2018-04-15T03:34:51.099Z,51.55
2018-04-15T03:35:57.634Z,46.97
2018-04-15T03:37:04.170Z,56.35
2018-04-15T03:38:09.967Z,52.92
2018-04-15T03:39:15.822Z,48.70
2018-04-15T03:40:21.602Z,50.25
2018-04-15T03:41:27.367Z,48.60
2018-04-15T03:42:33.145Z,52.75
2018-04-15T03:43:38.930Z,46.08
2018-04-15T03:44:44.698Z,49.47
2018-04-15T03:45:51.250Z,49.53
2018-04-15T03:46:57.019Z,50.55
2018-04-15T03:48:03.287Z,50.75
2018-04-15T03:49:09.079Z,54.83
2018-04-15T03:50:14.853Z,60.97
2018-04-15T03:51:21.377Z,46.65
2018-04-15T03:52:27.142Z,46.22
2018-04-15T03:53:33.680Z,55.30
2018-04-15T03:54:39.471Z,51.53
2018-04-15T03:55:45.247Z,51.45
2018-04-15T03:56:51.007Z,48.20
2018-04-15T03:57:56.776Z,50.25
2018-04-15T03:59:03.420Z,48.45
2018-04-15T04:00:09.307Z,50.80
2018-04-15T04:01:15.076Z,53.15
2018-04-15T04:02:20.842Z,44.83
2018-04-15T04:03:26.610Z,49.17
2018-04-15T04:04:33.156Z,49.30
2018-04-15T04:05:38.952Z,48.75
2018-04-15T04:06:44.732Z,50.25
2018-04-15T04:07:50.503Z,47.47
2018-04-15T04:08:57.053Z,55.33
2018-04-15T04:10:03.591Z,48.60
2018-04-15T04:11:09.383Z,50.67
2018-04-15T04:12:15.169Z,49.17
2018-04-15T04:13:20.766Z,55.75
2018-04-15T04:14:26.700Z,49.67
2018-04-15T04:15:32.239Z,54.50
2018-04-15T04:16:38.020Z,45.55
2018-04-15T04:18:00.324Z,50.80
2018-04-15T04:19:22.891Z,46.37
2018-04-15T04:20:45.516Z,48.13
2018-04-15T04:22:08.255Z,49.60
2018-04-15T04:23:30.928Z,48.65
2018-04-15T04:24:54.352Z,50.15
2018-04-15T04:26:07.252Z,51.00
2018-04-15T04:27:13.279Z,51.42
2018-04-15T04:28:19.083Z,47.60
2018-04-15T04:29:24.855Z,57.05
2018-04-15T04:30:30.625Z,52.83
2018-04-15T04:31:36.074Z,45.40
2018-04-15T04:32:41.872Z,47.45
2018-04-15T04:33:47.644Z,54.05
2018-04-15T04:34:53.411Z,48.67
2018-04-15T04:35:59.171Z,57.33
2018-04-15T04:37:05.717Z,48.55
2018-04-15T04:38:11.508Z,52.33
2018-04-15T04:39:17.284Z,50.00
2018-04-15T04:40:23.063Z,55.35
2018-04-15T04:41:29.278Z,53.40
2018-04-15T04:42:35.050Z,53.25
2018-04-15T04:43:40.835Z,51.37
2018-04-15T04:44:46.317Z,47.90
2018-04-15T04:45:52.083Z,49.67
2018-04-15T04:46:58.621Z,51.78
2018-04-15T04:48:05.202Z,48.83
2018-04-15T04:49:11.748Z,53.42
2018-04-15T04:50:17.532Z,52.55
2018-04-15T04:51:23.305Z,48.92
2018-04-15T04:52:29.118Z,45.05
2018-04-15T04:53:34.878Z,51.22
2018-04-15T04:54:40.675Z,48.03
2018-04-15T04:55:47.219Z,51.30
2018-04-15T04:56:52.996Z,51.22
2018-04-15T04:57:58.757Z,48.47
2018-04-15T04:59:04.557Z,45.72
2018-04-15T05:00:11.119Z,48.05
2018-04-15T05:01:17.659Z,52.40
2018-04-15T05:02:24.202Z,52.58
2018-04-15T05:03:29.767Z,48.45
2018-04-15T05:04:35.535Z,49.45
2018-04-15T05:05:41.356Z,44.63
2018-04-15T05:06:47.968Z,47.55
2018-04-15T05:07:53.727Z,49.10
2018-04-15T05:08:59.570Z,50.08
2018-04-15T05:10:05.342Z,47.00
2018-04-15T05:11:11.936Z,51.65
2018-04-15T05:12:17.699Z,44.25
2018-04-15T05:13:23.512Z,49.58
2018-04-15T05:14:29.273Z,52.28
2018-04-15T05:15:35.034Z,49.13
2018-04-15T05:16:40.834Z,43.80
2018-04-15T05:17:46.595Z,50.42
2018-04-15T05:18:52.370Z,50.42
2018-04-15T05:19:58.155Z,48.42
2018-04-15T05:21:04.009Z,46.88
2018-04-15T05:22:09.803Z,46.22
2018-04-15T05:23:15.568Z,48.47
2018-04-15T05:24:22.119Z,48.03
2018-04-15T05:25:27.886Z,48.50
2018-04-15T05:26:33.685Z,47.35
2018-04-15T05:27:39.475Z,50.00
2018-04-15T05:28:45.259Z,51.92
2018-04-15T05:29:51.072Z,46.60
2018-04-15T05:30:56.863Z,44.58
2018-04-15T05:32:02.636Z,50.55
2018-04-15T05:33:08.437Z,46.08
2018-04-15T05:34:14.228Z,43.65
2018-04-15T05:35:19.990Z,46.80
2018-04-15T05:36:25.527Z,51.00
2018-04-15T05:37:31.360Z,49.65
2018-04-15T05:38:37.300Z,48.72
2018-04-15T05:39:43.211Z,48.33
2018-04-15T05:40:49.733Z,43.70
2018-04-15T05:41:55.511Z,45.95
2018-04-15T05:43:01.288Z,45.88
2018-04-15T05:44:07.081Z,49.17
2018-04-15T05:45:12.847Z,47.97
2018-04-15T05:46:19.395Z,45.20
2018-04-15T05:47:25.167Z,46.72
2018-04-15T05:48:30.934Z,43.53
2018-04-15T05:49:36.728Z,49.33
2018-04-15T05:50:43.271Z,44.63
2018-04-15T05:51:49.819Z,44.10
2018-04-15T05:52:55.588Z,45.97
2018-04-15T05:54:01.436Z,41.63
2018-04-15T05:55:07.990Z,48.63
2018-04-15T05:56:14.315Z,43.53
2018-04-15T05:57:20.077Z,39.72
2018-04-15T05:58:25.888Z,43.60
2018-04-15T05:59:31.675Z,41.47
2018-04-15T06:00:37.648Z,44.42
2018-04-15T06:01:43.414Z,41.47
2018-04-15T06:02:49.196Z,45.12
2018-04-15T06:03:55.730Z,42.53
2018-04-15T06:05:01.502Z,43.25
2018-04-15T06:06:07.312Z,41.37
2018-04-15T06:07:13.079Z,46.65
2018-04-15T06:08:19.682Z,45.45
2018-04-15T06:09:25.459Z,42.08
2018-04-15T06:10:31.236Z,42.47
2018-04-15T06:11:37.051Z,36.03
2018-04-15T06:12:43.031Z,41.67
2018-04-15T06:13:49.570Z,44.80
2018-04-15T06:14:55.375Z,41.92
2018-04-15T06:16:02.091Z,38.65
2018-04-15T06:17:07.899Z,41.30
2018-04-15T06:18:13.668Z,43.22
2018-04-15T06:19:21.173Z,41.50
2018-04-15T06:20:27.062Z,42.80
2018-04-15T06:21:32.590Z,37.67
2018-04-15T06:22:38.412Z,39.03
2018-04-15T06:23:44.163Z,41.00
2018-04-15T06:24:49.935Z,46.42
2018-04-15T06:25:55.702Z,39.95
2018-04-15T06:27:01.476Z,37.95
2018-04-15T06:28:07.269Z,36.42
2018-04-15T06:29:13.060Z,35.72
2018-04-15T06:30:18.831Z,41.20
2018-04-15T06:31:24.605Z,42.42
2018-04-15T06:32:31.136Z,39.90
2018-04-15T06:33:36.935Z,38.80
2018-04-15T06:34:43.488Z,45.70
2018-04-15T06:35:50.033Z,37.58
2018-04-15T06:36:55.850Z,41.78
2018-04-15T06:38:01.799Z,33.03
2018-04-15T06:39:06.787Z,36.05
2018-04-15T06:40:12.559Z,33.80
2018-04-15T06:41:18.339Z,36.75
2018-04-15T06:42:24.107Z,36.47
2018-04-15T06:43:29.871Z,36.70
2018-04-15T06:44:35.588Z,36.05
2018-04-15T06:45:41.360Z,37.28
2018-04-15T06:46:47.131Z,36.28
2018-04-15T06:47:52.928Z,35.78
2018-04-15T06:48:58.716Z,32.25
2018-04-15T06:50:04.513Z,34.13
2018-04-15T06:51:10.077Z,34.85
2018-04-15T06:52:15.847Z,34.58
2018-04-15T06:53:21.634Z,36.65
2018-04-15T06:54:27.389Z,36.10
2018-04-15T06:55:33.180Z,32.22
2018-04-15T06:56:39.710Z,32.15
2018-04-15T06:57:45.483Z,34.40
2018-04-15T06:58:52.017Z,35.83
2018-04-15T06:59:57.790Z,34.15
2018-04-15T07:01:04.343Z,33.67
2018-04-15T07:02:10.871Z,30.58
2018-04-15T07:03:16.655Z,33.53
2018-04-15T07:04:23.206Z,31.15
2018-04-15T07:05:29.728Z,34.15
2018-04-15T07:06:35.523Z,34.13
2018-04-15T07:07:41.288Z,32.38
2018-04-15T07:08:47.067Z,28.50
2018-04-15T07:09:52.611Z,30.95
2018-04-15T07:10:58.392Z,29.50
2018-04-15T07:12:04.168Z,29.48
2018-04-15T07:13:09.930Z,31.70
2018-04-15T07:14:15.725Z,29.73
2018-04-15T07:15:21.491Z,31.30
2018-04-15T07:16:27.325Z,28.38
2018-04-15T07:17:34.039Z,28.70
2018-04-15T07:18:40.583Z,31.05
2018-04-15T07:19:47.875Z,27.73
2018-04-15T07:20:53.639Z,29.52
2018-04-15T07:21:59.402Z,27.73
2018-04-15T07:23:05.232Z,28.58
2018-04-15T07:24:11.079Z,28.75
2018-04-15T07:25:16.842Z,28.05
2018-04-15T07:26:22.626Z,28.83
2018-04-15T07:27:28.594Z,28.15
2018-04-15T07:28:35.154Z,27.95
2018-04-15T07:29:41.688Z,29.02
2018-04-15T07:30:47.476Z,28.15
2018-04-15T07:31:53.239Z,27.00
2018-04-15T07:32:59.033Z,26.48
2018-04-15T07:34:05.584Z,28.58
2018-04-15T07:35:12.116Z,26.17
2018-04-15T07:36:17.683Z,27.33
2018-04-15T07:37:24.217Z,26.05
2018-04-15T07:38:29.747Z,26.27
2018-04-15T07:39:35.535Z,25.52
2018-04-15T07:40:41.307Z,26.92
2018-04-15T07:41:47.170Z,26.98
2018-04-15T07:42:52.947Z,26.12
2018-04-15T07:43:59.509Z,26.45
2018-04-15T07:45:06.056Z,26.15
2018-04-15T07:46:11.837Z,27.52
2018-04-15T07:47:17.599Z,28.65
2018-04-15T07:48:23.364Z,26.90
2018-04-15T07:49:29.144Z,27.58
2018-04-15T07:50:35.711Z,27.02
2018-04-15T07:51:42.243Z,28.92
2018-04-15T07:52:48.025Z,27.98
2018-04-15T07:53:53.791Z,28.38
2018-04-15T07:54:59.557Z,27.65
2018-04-15T07:56:05.347Z,26.65
2018-04-15T07:57:11.123Z,27.35
2018-04-15T07:58:16.904Z,27.67
2018-04-15T07:59:23.438Z,27.60
2018-04-15T08:00:29.215Z,27.10
2018-04-15T08:01:35.776Z,28.25
2018-04-15T08:02:42.334Z,26.85
2018-04-15T08:03:48.874Z,27.25
2018-04-15T08:04:54.636Z,27.52
2018-04-15T08:06:01.181Z,27.20
2018-04-15T08:07:07.736Z,27.33
2018-04-15T08:08:13.510Z,26.80
2018-04-15T08:09:20.043Z,25.50
2018-04-15T08:10:27.523Z,26.02
2018-04-15T08:11:33.279Z,26.30
2018-04-15T08:12:39.843Z,25.33
2018-04-15T08:13:46.384Z,25.25
2018-04-15T08:14:52.163Z,25.95
2018-04-15T08:15:57.932Z,25.10
2018-04-15T08:17:03.880Z,25.80
2018-04-15T08:18:09.703Z,25.27
2018-04-15T08:19:15.480Z,26.60
2018-04-15T08:20:21.760Z,25.50
2018-04-15T08:21:28.148Z,25.35
2018-04-15T08:22:33.936Z,26.52
2018-04-15T08:23:39.724Z,26.37
2018-04-15T08:24:45.616Z,24.80
2018-04-15T08:25:51.530Z,25.35
2018-04-15T08:26:57.420Z,25.77
2018-04-15T08:28:03.190Z,23.92
2018-04-15T08:29:10.126Z,23.50
2018-04-15T08:30:15.695Z,23.75
2018-04-15T08:31:22.296Z,24.67
2018-04-15T08:32:28.067Z,23.35
2018-04-15T08:33:33.871Z,25.05
2018-04-15T08:34:40.003Z,23.90
2018-04-15T08:35:45.812Z,23.85
2018-04-15T08:36:52.716Z,24.42
2018-04-15T08:37:58.504Z,24.25
2018-04-15T08:39:03.620Z,22.77
2018-04-15T08:40:09.535Z,22.65
2018-04-15T08:41:15.443Z,23.85
2018-04-15T08:42:22.083Z,22.75
2018-04-15T08:43:28.094Z,23.87
2018-04-15T08:44:36.907Z,21.92
2018-04-15T08:45:43.643Z,22.85
2018-04-15T08:46:50.183Z,19.85
2018-04-15T08:47:56.349Z,21.15
2018-04-15T08:49:03.218Z,19.30
2018-04-15T08:50:09.788Z,19.80
2018-04-15T08:51:17.263Z,19.87
2018-04-15T08:52:24.644Z,21.75
2018-04-15T08:53:31.239Z,20.88
2018-04-15T08:54:38.610Z,21.05
2018-04-15T08:55:44.408Z,21.55
2018-04-15T08:56:50.203Z,21.00
2018-04-15T08:57:56.696Z,22.02
2018-04-15T08:59:03.224Z,21.50
2018-04-15T09:00:09.337Z,21.62
2018-04-15T09:01:15.147Z,23.12
2018-04-15T09:02:21.740Z,23.33
2018-04-15T09:03:28.267Z,22.75
2018-04-15T09:04:34.038Z,22.10
2018-04-15T09:05:40.613Z,24.27
2018-04-15T09:06:47.145Z,22.23
2018-04-15T09:07:57.723Z,22.08
2018-04-15T09:09:03.806Z,23.80
2018-04-15T09:10:10.863Z,22.98
2018-04-15T09:11:16.813Z,21.73
2018-04-15T09:12:22.715Z,21.87
2018-04-15T09:13:29.518Z,20.67
2018-04-15T09:14:35.463Z,21.87
2018-04-15T09:15:42.707Z,21.45
2018-04-15T09:16:48.786Z,20.02
2018-04-15T09:17:56.715Z,21.98
2018-04-15T09:19:03.215Z,19.75
2018-04-15T09:20:10.052Z,19.92
2018-04-15T09:21:16.035Z,19.33
2018-04-15T09:22:22.749Z,19.85
2018-04-15T09:23:29.713Z,19.70
2018-04-15T09:24:36.709Z,21.00
2018-04-15T09:25:43.387Z,19.70
2018-04-15T09:26:49.280Z,19.85
2018-04-15T09:27:55.958Z,20.25
2018-04-15T09:29:01.905Z,19.40
2018-04-15T09:30:09.880Z,20.15
2018-04-15T09:31:15.923Z,19.30
2018-04-15T09:32:22.188Z,19.30
2018-04-15T09:33:28.237Z,20.20
2018-04-15T09:34:34.617Z,19.50
2018-04-15T09:35:41.586Z,19.77
2018-04-15T09:36:48.671Z,19.70
2018-04-15T09:37:55.840Z,18.30
2018-04-15T09:39:02.080Z,18.42
2018-04-15T09:40:08.127Z,19.23
2018-04-15T09:41:14.068Z,19.37
2018-04-15T09:42:20.982Z,16.33
2018-04-15T09:43:26.958Z,16.73
2018-04-15T09:44:33.341Z,16.35
2018-04-15T09:45:39.160Z,16.75
2018-04-15T09:46:46.482Z,16.30
2018-04-15T09:47:52.294Z,16.48
2018-04-15T09:48:58.942Z,16.45
2018-04-15T09:50:07.233Z,17.05
2018-04-15T09:51:13.283Z,17.15
2018-04-15T09:52:20.741Z,16.90
2018-04-15T09:53:27.920Z,18.40
2018-04-15T09:54:34.435Z,19.85
2018-04-15T09:55:40.784Z,20.17
2018-04-15T09:56:47.058Z,19.12
2018-04-15T09:57:53.455Z,19.70
2018-04-15T09:59:00.161Z,20.02
2018-04-15T10:00:07.565Z,18.65
2018-04-15T10:01:17.477Z,19.83
2018-04-15T10:02:23.522Z,21.02
2018-04-15T10:03:29.655Z,19.25
2018-04-15T10:04:36.571Z,18.90
2018-04-15T10:05:43.287Z,17.12
2018-04-15T10:06:50.147Z,17.20
2018-04-15T10:07:56.939Z,15.55
2018-04-15T10:09:02.967Z,14.90
2018-04-15T10:10:11.688Z,17.15
2018-04-15T10:11:18.508Z,17.10
2018-04-15T10:12:24.511Z,17.92
2018-04-15T10:13:30.638Z,17.65
2018-04-15T10:14:41.764Z,18.35
2018-04-15T10:15:48.751Z,17.25
2018-04-15T10:16:55.750Z,18.58
2018-04-15T10:18:01.942Z,19.02
2018-04-15T10:19:08.074Z,18.80
2018-04-15T10:20:14.091Z,18.48
2018-04-15T10:21:20.066Z,17.45
2018-04-15T10:22:26.029Z,17.65
2018-04-15T10:23:31.954Z,17.75
2018-04-15T10:24:39.039Z,18.58
2018-04-15T10:25:45.662Z,19.23
2018-04-15T10:26:52.560Z,17.70
2018-04-15T10:27:59.479Z,18.02
2018-04-15T10:29:06.897Z,19.27
2018-04-15T10:30:12.697Z,18.05
2018-04-15T10:31:18.802Z,18.95
2018-04-15T10:32:24.750Z,18.75
2018-04-15T10:33:31.395Z,17.50
2018-04-15T10:34:38.229Z,19.48
2018-04-15T10:35:46.504Z,19.35
2018-04-15T10:36:52.688Z,18.60
2018-04-15T10:37:59.676Z,19.37
2018-04-15T10:39:05.749Z,19.75
2018-04-15T10:40:11.661Z,20.08
2018-04-15T10:41:17.642Z,19.40
2018-04-15T10:42:23.546Z,18.55
2018-04-15T10:43:29.332Z,18.60
2018-04-15T10:44:36.097Z,18.77
2018-04-15T10:45:42.245Z,20.80
2018-04-15T10:46:48.893Z,18.60
2018-04-15T10:47:55.723Z,17.77
2018-04-15T10:49:02.119Z,16.27
2018-04-15T10:50:08.342Z,18.15
2018-04-15T10:51:14.253Z,19.42
2018-04-15T10:52:20.275Z,19.25
2018-04-15T10:53:26.324Z,17.23
2018-04-15T10:54:32.146Z,17.05
2018-04-15T10:55:38.183Z,17.20
2018-04-15T10:56:46.377Z,18.20
2018-04-15T10:57:55.325Z,17.85
2018-04-15T10:59:01.276Z,17.70
2018-04-15T11:00:07.534Z,17.45
2018-04-15T11:01:13.577Z,17.35
2018-04-15T11:02:19.524Z,17.45
2018-04-15T11:03:26.493Z,17.90
2018-04-15T11:04:32.602Z,15.95
2018-04-15T11:05:39.419Z,19.33
2018-04-15T11:06:46.434Z,20.48
2018-04-15T11:07:53.454Z,19.23
2018-04-15T11:08:59.603Z,19.42
2018-04-15T11:10:05.436Z,20.37
2018-04-15T11:11:12.149Z,18.33
2018-04-15T11:12:19.903Z,18.48
2018-04-15T11:13:26.694Z,19.17
2018-04-15T11:14:32.793Z,18.62
2018-04-15T11:15:41.303Z,20.62
2018-04-15T11:16:47.919Z,21.95
2018-04-15T11:17:54.931Z,23.95
2018-04-15T11:19:01.929Z,23.85
2018-04-15T11:20:07.774Z,22.10
2018-04-15T11:21:13.479Z,22.40
2018-04-15T11:22:20.793Z,24.77
2018-04-15T11:23:26.842Z,24.48
2018-04-15T11:24:33.394Z,23.67
2018-04-15T11:25:39.747Z,23.83
2018-04-15T11:26:47.351Z,22.77
2018-04-15T11:27:53.131Z,23.90
2018-04-15T11:28:59.000Z,23.02
2018-04-15T11:30:07.888Z,23.27
2018-04-15T11:31:13.767Z,21.92
2018-04-15T11:32:21.284Z,22.65
2018-04-15T11:33:27.088Z,24.87
2018-04-15T11:34:33.688Z,23.38
2018-04-15T11:35:39.611Z,23.27
2018-04-15T11:37:56.775Z,22.60
2018-04-15T11:39:03.481Z,23.20
2018-04-15T11:40:09.272Z,22.10
2018-04-15T11:41:15.049Z,22.62
2018-04-15T11:42:21.019Z,22.23
2018-04-15T11:43:26.814Z,21.77
2018-04-15T11:44:32.603Z,22.42
2018-04-15T11:45:38.456Z,23.02
2018-04-15T11:46:44.230Z,22.35
2018-04-15T11:47:50.140Z,21.87
2018-04-15T11:48:55.907Z,22.23
2018-04-15T11:50:01.717Z,22.00
2018-04-15T11:51:07.496Z,20.58
2018-04-15T11:52:13.265Z,22.70
2018-04-15T11:53:19.060Z,22.27
2018-04-15T11:54:24.870Z,22.23
2018-04-15T11:55:30.715Z,22.48
2018-04-15T11:56:37.291Z,21.75
2018-04-15T11:57:43.070Z,23.12
2018-04-15T11:58:48.856Z,22.40
2018-04-15T11:59:55.390Z,22.02
2018-04-15T12:01:01.230Z,21.10
2018-04-15T12:02:07.031Z,22.60
2018-04-15T12:03:13.058Z,22.70
2018-04-15T12:04:18.957Z,22.60
2018-04-15T12:05:24.713Z,23.20
2018-04-15T12:06:30.475Z,22.92
2018-04-15T12:07:37.987Z,23.52
2018-04-15T12:08:44.021Z,21.65
2018-04-15T12:09:49.819Z,23.17
2018-04-15T12:10:56.464Z,24.63
2018-04-15T12:12:02.235Z,22.80
2018-04-15T12:13:08.006Z,24.20
2018-04-15T12:14:14.540Z,24.52
2018-04-15T12:15:21.088Z,25.35
2018-04-15T12:16:26.862Z,26.05
2018-04-15T12:17:33.439Z,26.90
2018-04-15T12:18:39.485Z,25.23
2018-04-15T12:19:45.287Z,23.73
2018-04-15T12:20:51.109Z,26.02
2018-04-15T12:21:56.885Z,23.62
2018-04-15T12:23:03.628Z,27.35
2018-04-15T12:24:09.400Z,27.45
2018-04-15T12:25:15.948Z,27.30
2018-04-15T12:26:21.751Z,26.23
2018-04-15T12:27:27.552Z,27.20
2018-04-15T12:28:34.076Z,27.45
2018-04-15T12:29:39.868Z,26.73
2018-04-15T12:30:47.460Z,25.90
2018-04-15T12:31:53.396Z,26.90
2018-04-15T12:32:59.187Z,25.75
2018-04-15T12:34:04.980Z,28.60
2018-04-15T12:35:10.753Z,26.98
2018-04-15T12:36:16.527Z,27.02
2018-04-15T12:37:22.459Z,27.02
2018-04-15T12:38:28.267Z,28.17
2018-04-15T12:39:34.032Z,27.27
2018-04-15T12:40:39.856Z,26.83
2018-04-15T12:41:45.635Z,27.25
2018-04-15T12:42:51.438Z,26.83
2018-04-15T12:43:57.197Z,27.27
2018-04-15T12:45:02.975Z,26.90
2018-04-15T12:46:09.523Z,26.55
2018-04-15T12:47:16.809Z,26.60
2018-04-15T12:48:22.839Z,26.95
2018-04-15T12:49:28.609Z,25.80
2018-04-15T12:50:35.167Z,27.15
2018-04-15T12:51:42.331Z,27.25
2018-04-15T12:52:49.341Z,28.23
2018-04-15T12:53:55.257Z,26.45
2018-04-15T12:55:02.167Z,25.85
2018-04-15T12:56:08.087Z,26.85
2018-04-15T12:57:13.709Z,27.05
2018-04-15T12:58:20.299Z,25.37
2018-04-15T12:59:26.075Z,27.05
2018-04-15T13:00:31.885Z,27.37
2018-04-15T13:01:37.662Z,26.35
2018-04-15T13:02:43.439Z,26.50
2018-04-15T13:03:49.232Z,25.75
2018-04-15T13:04:55.024Z,27.48
2018-04-15T13:06:00.867Z,26.20
2018-04-15T13:07:06.816Z,26.40
2018-04-15T13:08:12.890Z,27.62
2018-04-15T13:09:18.640Z,26.08
2018-04-15T13:10:25.196Z,25.80
2018-04-15T13:11:32.087Z,26.15
2018-04-15T13:12:37.859Z,27.80
2018-04-15T13:13:43.634Z,25.42
2018-04-15T13:14:49.419Z,26.77
2018-04-15T13:15:55.203Z,24.40
2018-04-15T13:17:00.984Z,24.00
2018-04-15T13:18:07.036Z,25.55
2018-04-15T13:19:12.815Z,25.48
2018-04-15T13:20:20.099Z,24.35
2018-04-15T13:21:25.655Z,24.87
2018-04-15T13:22:32.176Z,26.02
2018-04-15T13:23:37.963Z,26.20
2018-04-15T13:24:44.498Z,25.35
2018-04-15T13:25:51.012Z,24.37
2018-04-15T13:26:56.876Z,24.85
2018-04-15T13:28:02.680Z,24.90
2018-04-15T13:29:08.448Z,22.92
2018-04-15T13:30:14.234Z,25.00
2018-04-15T13:31:20.055Z,24.83
2018-04-15T13:32:25.965Z,24.63
2018-04-15T13:33:31.726Z,24.87
2018-04-15T13:34:37.492Z,25.23
2018-04-15T13:35:43.341Z,27.17
2018-04-15T13:36:50.048Z,25.30
2018-04-15T13:37:56.040Z,24.98
2018-04-15T13:39:01.803Z,24.90
2018-04-15T13:40:08.752Z,26.02
2018-04-15T13:41:14.607Z,25.20
2018-04-15T13:42:20.507Z,27.40
2018-04-15T13:43:26.424Z,26.52
2018-04-15T13:44:33.126Z,26.12
2018-04-15T13:45:39.223Z,24.17
2018-04-15T13:46:45.911Z,25.12
2018-04-15T13:47:51.468Z,23.73
2018-04-15T13:48:57.024Z,25.37
2018-04-15T13:50:02.831Z,24.83
2018-04-15T13:51:08.756Z,24.73
2018-04-15T13:52:15.351Z,25.45
2018-04-15T13:53:22.868Z,24.52
2018-04-15T13:54:28.766Z,24.50
2018-04-15T13:55:34.666Z,24.48
2018-04-15T13:56:41.257Z,26.00
2018-04-15T13:57:47.833Z,25.80
2018-04-15T13:58:53.906Z,25.88
2018-04-15T13:59:59.698Z,24.45
2018-04-15T14:01:05.991Z,25.10
2018-04-15T14:02:12.085Z,23.70
2018-04-15T14:03:18.666Z,24.33
2018-04-15T14:04:25.204Z,22.55
2018-04-15T14:05:31.141Z,24.55
2018-04-15T14:06:37.240Z,24.75
2018-04-15T14:07:43.367Z,24.52
2018-04-15T14:08:49.454Z,22.85
2018-04-15T14:09:56.314Z,23.17
2018-04-15T14:11:02.459Z,24.30
2018-04-15T14:12:08.400Z,22.67
2018-04-15T14:13:14.033Z,21.75
2018-04-15T14:14:20.001Z,21.42